sensor_id;sensor_type;location;lat;lon;timestamp;pressure;altitude;pressure_sealevel;temperature;humidity
59831;BME280;45711;50.108;13.712;2023-05-12T00:00:06;97741.03;;;8.68;78.18
59831;BME280;45711;50.108;13.712;2023-05-12T00:02:37;97727.16;;;8.71;78.12
59831;BME280;45711;50.108;13.712;2023-05-12T00:05:07;97726.59;;;8.74;77.99
59831;BME280;45711;50.108;13.712;2023-05-12T00:07:42;97730.38;;;8.63;78.47
59831;BME280;45711;50.108;13.712;2023-05-12T00:10:15;97733.84;;;8.59;78.66
59831;BME280;45711;50.108;13.712;2023-05-12T00:12:44;97740.22;;;8.52;78.56
59831;BME280;45711;50.108;13.712;2023-05-12T00:15:11;97743.97;;;8.51;79.22
59831;BME280;45711;50.108;13.712;2023-05-12T00:17:42;97737.84;;;8.46;79.64
59831;BME280;45711;50.108;13.712;2023-05-12T00:20:11;97740.47;;;8.66;78.78
59831;BME280;45711;50.108;13.712;2023-05-12T00:22:40;97730.31;;;8.78;77.77
59831;BME280;45711;50.108;13.712;2023-05-12T00:25:11;97733.03;;;8.58;78.29
59831;BME280;45711;50.108;13.712;2023-05-12T00:27:40;97741.03;;;8.53;78.36
59831;BME280;45711;50.108;13.712;2023-05-12T00:30:08;97735.16;;;8.56;78.92
59831;BME280;45711;50.108;13.712;2023-05-12T00:32:34;97738.91;;;8.40;80.44
59831;BME280;45711;50.108;13.712;2023-05-12T00:35:04;97733.28;;;8.56;79.63
59831;BME280;45711;50.108;13.712;2023-05-12T00:37:29;97739.69;;;8.66;79.17
59831;BME280;45711;50.108;13.712;2023-05-12T00:40:03;97736.75;;;8.72;78.72
59831;BME280;45711;50.108;13.712;2023-05-12T00:42:34;97730.84;;;8.80;78.28
59831;BME280;45711;50.108;13.712;2023-05-12T00:45:07;97746.31;;;8.84;77.91
59831;BME280;45711;50.108;13.712;2023-05-12T00:47:35;97738.53;;;8.92;77.57
59831;BME280;45711;50.108;13.712;2023-05-12T00:50:04;97742.09;;;8.57;78.46
59831;BME280;45711;50.108;13.712;2023-05-12T00:52:30;97740.78;;;8.54;79.41
59831;BME280;45711;50.108;13.712;2023-05-12T00:55:01;97740.25;;;8.63;79.47
59831;BME280;45711;50.108;13.712;2023-05-12T00:57:39;97744.25;;;8.55;79.67
59831;BME280;45711;50.108;13.712;2023-05-12T01:00:08;97748.22;;;8.52;79.36
59831;BME280;45711;50.108;13.712;2023-05-12T01:02:40;97743.16;;;8.56;79.16
59831;BME280;45711;50.108;13.712;2023-05-12T01:05:10;97744.75;;;8.67;79.00
59831;BME280;45711;50.108;13.712;2023-05-12T01:07:39;97739.16;;;8.69;78.30
59831;BME280;45711;50.108;13.712;2023-05-12T01:10:21;97748.50;;;8.71;78.79
59831;BME280;45711;50.108;13.712;2023-05-12T01:12:49;97736.72;;;8.82;79.10
59831;BME280;45711;50.108;13.712;2023-05-12T01:15:30;97738.03;;;8.85;78.73
59831;BME280;45711;50.108;13.712;2023-05-12T01:18:20;97744.22;;;8.65;78.54
59831;BME280;45711;50.108;13.712;2023-05-12T01:20:50;97750.34;;;8.66;79.43
59831;BME280;45711;50.108;13.712;2023-05-12T01:23:26;97747.97;;;8.59;78.86
59831;BME280;45711;50.108;13.712;2023-05-12T01:29:06;97751.69;;;8.63;78.66
59831;BME280;45711;50.108;13.712;2023-05-12T01:31:32;97745.06;;;8.50;79.00
59831;BME280;45711;50.108;13.712;2023-05-12T01:34:03;97746.66;;;8.46;79.72
59831;BME280;45711;50.108;13.712;2023-05-12T01:36:36;97748.78;;;8.54;80.30
59831;BME280;45711;50.108;13.712;2023-05-12T01:39:02;97749.84;;;8.64;80.33
59831;BME280;45711;50.108;13.712;2023-05-12T01:41:34;97751.44;;;8.60;79.53
59831;BME280;45711;50.108;13.712;2023-05-12T01:44:27;97751.44;;;8.39;80.19
59831;BME280;45711;50.108;13.712;2023-05-12T01:46:58;97755.72;;;8.55;79.85
59831;BME280;45711;50.108;13.712;2023-05-12T01:49:34;97746.66;;;8.41;79.42
59831;BME280;45711;50.108;13.712;2023-05-12T01:52:00;97758.94;;;8.42;80.19
59831;BME280;45711;50.108;13.712;2023-05-12T01:54:31;97765.06;;;8.43;79.69
59831;BME280;45711;50.108;13.712;2023-05-12T01:57:13;97765.84;;;8.48;79.56
59831;BME280;45711;50.108;13.712;2023-05-12T02:00:00;97767.72;;;8.43;79.46
59831;BME280;45711;50.108;13.712;2023-05-12T02:02:26;97764.00;;;8.54;79.70
59831;BME280;45711;50.108;13.712;2023-05-12T02:04:52;97766.13;;;8.62;79.92
59831;BME280;45711;50.108;13.712;2023-05-12T02:07:23;97762.66;;;8.46;81.03
59831;BME280;45711;50.108;13.712;2023-05-12T02:09:54;97763.44;;;8.47;80.46
59831;BME280;45711;50.108;13.712;2023-05-12T02:12:27;97764.25;;;8.42;81.33
59831;BME280;45711;50.108;13.712;2023-05-12T02:14:53;97768.00;;;8.41;81.64
59831;BME280;45711;50.108;13.712;2023-05-12T02:17:26;97766.38;;;8.50;81.69
59831;BME280;45711;50.108;13.712;2023-05-12T02:22:50;97764.78;;;8.54;81.82
59831;BME280;45711;50.108;13.712;2023-05-12T02:25:28;97766.66;;;8.44;82.13
59831;BME280;45711;50.108;13.712;2023-05-12T02:28:03;97762.66;;;8.41;83.07
59831;BME280;45711;50.108;13.712;2023-05-12T02:30:29;97761.56;;;8.57;82.21
59831;BME280;45711;50.108;13.712;2023-05-12T02:33:01;97766.66;;;8.59;81.90
59831;BME280;45711;50.108;13.712;2023-05-12T02:39:20;97757.03;;;8.53;80.64
59831;BME280;45711;50.108;13.712;2023-05-12T02:41:53;97760.53;;;8.53;80.47
59831;BME280;45711;50.108;13.712;2023-05-12T02:44:24;97759.19;;;8.41;81.36
59831;BME280;45711;50.108;13.712;2023-05-12T02:46:59;97759.16;;;8.30;80.88
59831;BME280;45711;50.108;13.712;2023-05-12T02:49:27;97762.34;;;8.17;82.11
59831;BME280;45711;50.108;13.712;2023-05-12T02:51:55;97755.44;;;8.21;82.05
59831;BME280;45711;50.108;13.712;2023-05-12T02:54:33;97759.44;;;8.39;81.60
59831;BME280;45711;50.108;13.712;2023-05-12T02:57:06;97760.25;;;8.40;82.10
59831;BME280;45711;50.108;13.712;2023-05-12T02:59:42;97760.47;;;8.18;83.00
59831;BME280;45711;50.108;13.712;2023-05-12T03:02:19;97759.41;;;8.03;83.58
59831;BME280;45711;50.108;13.712;2023-05-12T03:04:47;97766.06;;;8.01;84.12
59831;BME280;45711;50.108;13.712;2023-05-12T03:08:23;97755.44;;;8.06;83.79
59831;BME280;45711;50.108;13.712;2023-05-12T03:10:23;97758.06;;;8.01;83.32
59831;BME280;45711;50.108;13.712;2023-05-12T03:13:06;97755.91;;;7.77;84.03
59831;BME280;45711;50.108;13.712;2023-05-12T03:18:25;97757.00;;;7.76;84.19
59831;BME280;45711;50.108;13.712;2023-05-12T03:20:52;97761.81;;;7.95;83.67
59831;BME280;45711;50.108;13.712;2023-05-12T03:23:24;97763.44;;;8.16;82.72
59831;BME280;45711;50.108;13.712;2023-05-12T03:26:13;97762.88;;;8.09;83.18
59831;BME280;45711;50.108;13.712;2023-05-12T03:28:56;97759.16;;;8.25;82.61
59831;BME280;45711;50.108;13.712;2023-05-12T03:34:21;97771.44;;;8.11;83.07
59831;BME280;45711;50.108;13.712;2023-05-12T03:36:49;97760.47;;;8.18;83.00
59831;BME280;45711;50.108;13.712;2023-05-12T03:39:43;97766.09;;;8.31;82.42
59831;BME280;45711;50.108;13.712;2023-05-12T03:42:15;97766.66;;;8.59;81.66
59831;BME280;45711;50.108;13.712;2023-05-12T03:44:48;97771.44;;;8.62;80.85
59831;BME280;45711;50.108;13.712;2023-05-12T03:47:19;97776.00;;;8.46;82.30
59831;BME280;45711;50.108;13.712;2023-05-12T04:35:54;97784.72;;;9.68;77.51
59831;BME280;45711;50.108;13.712;2023-05-12T04:38:38;97797.75;;;9.74;77.75
59831;BME280;45711;50.108;13.712;2023-05-12T04:41:11;97800.84;;;10.02;77.11
59831;BME280;45711;50.108;13.712;2023-05-12T04:43:42;97795.44;;;10.07;77.56
59831;BME280;45711;50.108;13.712;2023-05-12T04:46:19;97798.91;;;10.07;77.12
59831;BME280;45711;50.108;13.712;2023-05-12T04:49:05;97802.56;;;10.22;76.62
59831;BME280;45711;50.108;13.712;2023-05-12T04:51:46;97798.56;;;10.24;76.61
59831;BME280;45711;50.108;13.712;2023-05-12T04:54:15;97807.31;;;10.35;75.79
59831;BME280;45711;50.108;13.712;2023-05-12T04:56:43;97801.56;;;10.52;74.47
59831;BME280;45711;50.108;13.712;2023-05-12T05:02:00;97818.88;;;10.60;74.33
59831;BME280;45711;50.108;13.712;2023-05-12T05:04:44;97812.75;;;10.59;74.80
59831;BME280;45711;50.108;13.712;2023-05-12T05:07:32;97816.97;;;10.65;75.30
59831;BME280;45711;50.108;13.712;2023-05-12T05:10:00;97823.50;;;10.83;74.57
59831;BME280;45711;50.108;13.712;2023-05-12T05:12:28;97813.06;;;10.81;77.31
59831;BME280;45711;50.108;13.712;2023-05-12T05:15:00;97814.34;;;10.89;76.97
59831;BME280;45711;50.108;13.712;2023-05-12T05:17:30;97815.69;;;10.87;77.14
59831;BME280;45711;50.108;13.712;2023-05-12T05:20:07;97816.78;;;11.15;75.22
59831;BME280;45711;50.108;13.712;2023-05-12T05:22:37;97815.22;;;11.08;72.67
59831;BME280;45711;50.108;13.712;2023-05-12T05:25:08;97823.72;;;11.40;73.32
59831;BME280;45711;50.108;13.712;2023-05-12T05:27:34;97819.53;;;11.52;72.70
59831;BME280;45711;50.108;13.712;2023-05-12T05:30:04;97827.53;;;11.33;73.77
59831;BME280;45711;50.108;13.712;2023-05-12T05:32:40;97825.81;;;11.67;72.83
59831;BME280;45711;50.108;13.712;2023-05-12T05:35:14;97825.91;;;11.80;71.97
59831;BME280;45711;50.108;13.712;2023-05-12T05:37:44;97828.13;;;12.16;71.10
59831;BME280;45711;50.108;13.712;2023-05-12T05:40:17;97825.53;;;12.11;70.39
59831;BME280;45711;50.108;13.712;2023-05-12T05:44:31;97825.69;;;12.20;71.18
59831;BME280;45711;50.108;13.712;2023-05-12T05:45:49;97836.38;;;12.39;70.95
59831;BME280;45711;50.108;13.712;2023-05-12T05:48:18;97838.94;;;12.81;69.07
59831;BME280;45711;50.108;13.712;2023-05-12T05:50:44;97844.31;;;12.95;66.02
59831;BME280;45711;50.108;13.712;2023-05-12T05:53:14;97844.13;;;13.05;65.66
59831;BME280;45711;50.108;13.712;2023-05-12T05:56:06;97848.97;;;13.22;64.63
59831;BME280;45711;50.108;13.712;2023-05-12T05:58:35;97851.66;;;13.36;63.60
59831;BME280;45711;50.108;13.712;2023-05-12T06:01:06;97857.75;;;13.69;62.98
59831;BME280;45711;50.108;13.712;2023-05-12T06:03:45;97860.97;;;13.71;62.28
59831;BME280;45711;50.108;13.712;2023-05-12T06:06:11;97855.97;;;13.65;62.48
59831;BME280;45711;50.108;13.712;2023-05-12T06:08:57;97860.94;;;13.99;62.16
59831;BME280;45711;50.108;13.712;2023-05-12T06:11:37;97860.31;;;14.16;61.04
59831;BME280;45711;50.108;13.712;2023-05-12T06:14:24;97862.63;;;14.31;60.71
59831;BME280;45711;50.108;13.712;2023-05-12T06:16:53;97870.19;;;14.43;59.34
59831;BME280;45711;50.108;13.712;2023-05-12T06:19:23;97861.00;;;14.44;58.49
59831;BME280;45711;50.108;13.712;2023-05-12T06:21:51;97863.59;;;14.49;59.85
59831;BME280;45711;50.108;13.712;2023-05-12T06:24:40;97864.41;;;14.49;57.45
59831;BME280;45711;50.108;13.712;2023-05-12T06:27:23;97869.69;;;14.41;58.05
59831;BME280;45711;50.108;13.712;2023-05-12T06:30:05;97873.22;;;14.27;57.33
59831;BME280;45711;50.108;13.712;2023-05-12T06:32:40;97875.81;;;14.32;58.16
59831;BME280;45711;50.108;13.712;2023-05-12T06:35:07;97870.97;;;14.43;58.28
59831;BME280;45711;50.108;13.712;2023-05-12T06:37:41;97875.19;;;14.36;58.13
59831;BME280;45711;50.108;13.712;2023-05-12T06:40:11;97868.72;;;14.37;58.77
59831;BME280;45711;50.108;13.712;2023-05-12T06:42:37;97876.69;;;14.42;58.09
59831;BME280;45711;50.108;13.712;2023-05-12T06:45:12;97879.97;;;14.75;58.59
59831;BME280;45711;50.108;13.712;2023-05-12T06:48:56;97879.78;;;14.94;57.75
59831;BME280;45711;50.108;13.712;2023-05-12T06:50:42;97877.16;;;15.02;57.93
59831;BME280;45711;50.108;13.712;2023-05-12T06:53:22;97877.72;;;15.22;57.39
59831;BME280;45711;50.108;13.712;2023-05-12T06:55:56;97888.31;;;15.49;57.38
59831;BME280;45711;50.108;13.712;2023-05-12T06:58:26;97883.47;;;15.60;56.80
59831;BME280;45711;50.108;13.712;2023-05-12T07:01:06;97897.88;;;17.43;52.43
59831;BME280;45711;50.108;13.712;2023-05-12T07:14:24;97884.75;;;20.24;44.48
59831;BME280;45711;50.108;13.712;2023-05-12T07:17:34;97882.16;;;20.80;43.76
59831;BME280;45711;50.108;13.712;2023-05-12T07:20:01;97879.25;;;19.83;44.66
59831;BME280;45711;50.108;13.712;2023-05-12T07:23:04;97880.56;;;20.39;43.96
59831;BME280;45711;50.108;13.712;2023-05-12T07:25:42;97890.31;;;20.15;43.85
59831;BME280;45711;50.108;13.712;2023-05-12T07:28:08;97885.28;;;20.42;43.26
59831;BME280;45711;50.108;13.712;2023-05-12T07:31:08;97885.56;;;21.80;41.22
59831;BME280;45711;50.108;13.712;2023-05-12T07:33:57;97883.63;;;21.65;40.06
59831;BME280;45711;50.108;13.712;2023-05-12T07:39:48;97884.34;;;21.78;40.58
59831;BME280;45711;50.108;13.712;2023-05-12T07:44:50;97887.03;;;21.94;40.32
59831;BME280;45711;50.108;13.712;2023-05-12T07:49:06;97882.22;;;21.71;40.81
59831;BME280;45711;50.108;13.712;2023-05-12T07:51:52;97882.06;;;22.31;39.44
59831;BME280;45711;50.108;13.712;2023-05-12T07:58:00;97897.78;;;22.38;39.73
59831;BME280;45711;50.108;13.712;2023-05-12T08:00:34;97889.97;;;21.38;41.29
59831;BME280;45711;50.108;13.712;2023-05-12T08:03:13;97884.66;;;19.47;43.82
59831;BME280;45711;50.108;13.712;2023-05-12T08:09:26;97893.56;;;22.40;38.45
59831;BME280;45711;50.108;13.712;2023-05-12T08:12:02;97891.00;;;22.67;38.50
59831;BME280;45711;50.108;13.712;2023-05-12T08:15:09;97890.59;;;19.73;43.37
59831;BME280;45711;50.108;13.712;2023-05-12T08:17:53;97891.16;;;19.21;46.56
59831;BME280;45711;50.108;13.712;2023-05-12T08:20:42;97889.47;;;19.41;44.20
59831;BME280;45711;50.108;13.712;2023-05-12T08:26:44;97882.88;;;20.93;42.47
59831;BME280;45711;50.108;13.712;2023-05-12T08:29:17;97900.88;;;19.80;43.99
59831;BME280;45711;50.108;13.712;2023-05-12T08:35:58;97897.88;;;21.90;38.93
59831;BME280;45711;50.108;13.712;2023-05-12T09:09:19;97915.22;;;20.94;41.55
59831;BME280;45711;50.108;13.712;2023-05-12T09:14:14;97925.34;;;21.53;39.12
59831;BME280;45711;50.108;13.712;2023-05-12T09:15:39;97920.72;;;20.70;40.88
59831;BME280;45711;50.108;13.712;2023-05-12T09:18:44;97912.31;;;19.86;39.84
59831;BME280;45711;50.108;13.712;2023-05-12T09:22:12;97914.09;;;20.55;39.29
59831;BME280;45711;50.108;13.712;2023-05-12T09:35:27;97910.97;;;21.25;40.73
59831;BME280;45711;50.108;13.712;2023-05-12T10:54:41;97898.91;;;19.11;45.22
59831;BME280;45711;50.108;13.712;2023-05-12T10:57:24;97891.56;;;19.11;45.13
59831;BME280;45711;50.108;13.712;2023-05-12T11:00:19;97893.56;;;19.02;43.33
59831;BME280;45711;50.108;13.712;2023-05-12T11:03:26;97896.44;;;18.84;46.98
59831;BME280;45711;50.108;13.712;2023-05-12T11:06:23;97890.50;;;18.70;46.68
59831;BME280;45711;50.108;13.712;2023-05-12T11:10:43;97895.09;;;19.12;45.79
59831;BME280;45711;50.108;13.712;2023-05-12T11:19:17;97890.69;;;18.65;45.02
59831;BME280;45711;50.108;13.712;2023-05-12T11:25:10;97900.50;;;18.28;47.36
59831;BME280;45711;50.108;13.712;2023-05-12T11:27:38;97898.34;;;18.21;49.26
59831;BME280;45711;50.108;13.712;2023-05-12T11:30:10;97898.47;;;18.25;48.07
59831;BME280;45711;50.108;13.712;2023-05-12T11:32:43;97904.03;;;17.99;48.82
59831;BME280;45711;50.108;13.712;2023-05-12T11:35:19;97899.22;;;18.04;49.31
59831;BME280;45711;50.108;13.712;2023-05-12T11:37:47;97899.88;;;18.01;48.31
59831;BME280;45711;50.108;13.712;2023-05-12T11:40:17;97900.41;;;18.24;49.16
59831;BME280;45711;50.108;13.712;2023-05-12T11:42:43;97904.44;;;17.80;48.75
59831;BME280;45711;50.108;13.712;2023-05-12T11:45:29;97913.25;;;17.98;47.70
59831;BME280;45711;50.108;13.712;2023-05-12T11:48:07;97917.19;;;17.71;48.94
59831;BME280;45711;50.108;13.712;2023-05-12T11:50:39;97906.50;;;17.83;48.30
59831;BME280;45711;50.108;13.712;2023-05-12T11:53:12;97912.16;;;18.28;47.21
59831;BME280;45711;50.108;13.712;2023-05-12T11:55:48;97903.66;;;18.09;48.25
59831;BME280;45711;50.108;13.712;2023-05-12T11:58:18;97904.53;;;18.22;48.90
59831;BME280;45711;50.108;13.712;2023-05-12T12:01:19;97895.09;;;18.07;47.56
59831;BME280;45711;50.108;13.712;2023-05-12T12:03:45;97900.13;;;18.17;46.95
59831;BME280;45711;50.108;13.712;2023-05-12T12:06:21;97895.72;;;18.33;47.97
59831;BME280;45711;50.108;13.712;2023-05-12T12:08:55;97900.59;;;18.40;46.84
59831;BME280;45711;50.108;13.712;2023-05-12T12:11:22;97897.34;;;18.26;47.09
59831;BME280;45711;50.108;13.712;2023-05-12T12:13:52;97911.59;;;18.86;46.11
59831;BME280;45711;50.108;13.712;2023-05-12T12:16:22;97907.25;;;18.72;46.98
59831;BME280;45711;50.108;13.712;2023-05-12T12:18:48;97901.19;;;18.88;47.08
59831;BME280;45711;50.108;13.712;2023-05-12T12:21:20;97894.47;;;18.94;46.03
59831;BME280;45711;50.108;13.712;2023-05-12T12:23:46;97904.31;;;18.56;44.68
59831;BME280;45711;50.108;13.712;2023-05-12T12:26:35;97904.81;;;18.50;45.31
59831;BME280;45711;50.108;13.712;2023-05-12T12:29:01;97898.59;;;18.49;47.56
59831;BME280;45711;50.108;13.712;2023-05-12T12:31:43;97904.94;;;18.53;45.83
59831;BME280;45711;50.108;13.712;2023-05-12T12:34:08;97912.66;;;18.22;46.10
59831;BME280;45711;50.108;13.712;2023-05-12T12:36:42;97905.66;;;18.21;47.23
59831;BME280;45711;50.108;13.712;2023-05-12T12:39:17;97896.41;;;18.22;46.45
59831;BME280;45711;50.108;13.712;2023-05-12T12:42:07;97909.13;;;18.30;45.49
59831;BME280;45711;50.108;13.712;2023-05-12T12:44:48;97902.50;;;18.40;47.65
59831;BME280;45711;50.108;13.712;2023-05-12T12:47:31;97900.06;;;18.47;44.88
59831;BME280;45711;50.108;13.712;2023-05-12T12:49:56;97899.22;;;18.55;45.40
59831;BME280;45711;50.108;13.712;2023-05-12T12:52:29;97906.28;;;18.68;43.67
59831;BME280;45711;50.108;13.712;2023-05-12T12:55:03;97904.03;;;18.49;45.17
59831;BME280;45711;50.108;13.712;2023-05-12T12:57:31;97903.06;;;18.75;46.99
59831;BME280;45711;50.108;13.712;2023-05-12T13:00:37;97898.50;;;18.88;43.15
59831;BME280;45711;50.108;13.712;2023-05-12T13:03:54;97895.16;;;19.03;46.01
59831;BME280;45711;50.108;13.712;2023-05-12T13:06:45;97896.09;;;18.44;44.41
59831;BME280;45711;50.108;13.712;2023-05-12T13:09:41;97891.16;;;18.46;48.28
59831;BME280;45711;50.108;13.712;2023-05-12T13:12:15;97886.78;;;18.54;47.39
59831;BME280;45711;50.108;13.712;2023-05-12T13:14:47;97889.63;;;18.37;43.79
59831;BME280;45711;50.108;13.712;2023-05-12T13:17:22;97886.91;;;18.16;43.73
59831;BME280;45711;50.108;13.712;2023-05-12T13:19:56;97890.41;;;18.16;45.70
59831;BME280;45711;50.108;13.712;2023-05-12T13:22:23;97900.81;;;18.05;44.09
59831;BME280;45711;50.108;13.712;2023-05-12T13:25:05;97889.38;;;18.00;48.98
59831;BME280;45711;50.108;13.712;2023-05-12T13:27:43;97899.31;;;18.17;47.44
59831;BME280;45711;50.108;13.712;2023-05-12T13:30:22;97902.03;;;18.17;46.79
59831;BME280;45711;50.108;13.712;2023-05-12T13:33:23;97910.69;;;18.01;46.19
59831;BME280;45711;50.108;13.712;2023-05-12T13:36:13;97908.53;;;17.48;47.29
59831;BME280;45711;50.108;13.712;2023-05-12T13:38:41;97927.84;;;17.67;48.25
59831;BME280;45711;50.108;13.712;2023-05-12T13:41:25;97903.06;;;17.65;47.92
59831;BME280;45711;50.108;13.712;2023-05-12T13:45:07;97902.66;;;17.84;46.21
59831;BME280;45711;50.108;13.712;2023-05-12T13:46:52;97908.94;;;18.05;45.21
59831;BME280;45711;50.108;13.712;2023-05-12T13:49:23;97904.31;;;18.06;46.63
59831;BME280;45711;50.108;13.712;2023-05-12T13:52:14;97898.53;;;17.87;45.12
59831;BME280;45711;50.108;13.712;2023-05-12T13:55:01;97903.66;;;18.09;43.39
59831;BME280;45711;50.108;13.712;2023-05-12T14:00:53;97905.16;;;17.98;47.61
59831;BME280;45711;50.108;13.712;2023-05-12T14:03:21;97902.66;;;17.84;47.41
59831;BME280;45711;50.108;13.712;2023-05-12T14:05:50;97900.44;;;18.16;46.11
59831;BME280;45711;50.108;13.712;2023-05-12T14:08:15;97900.44;;;18.16;46.52
59831;BME280;45711;50.108;13.712;2023-05-12T14:10:44;97903.16;;;18.37;45.18
59831;BME280;45711;50.108;13.712;2023-05-12T14:13:10;97900.44;;;18.37;48.86
59831;BME280;45711;50.108;13.712;2023-05-12T14:15:35;97895.50;;;18.39;45.05
59831;BME280;45711;50.108;13.712;2023-05-12T14:18:05;97895.97;;;18.41;46.41
59831;BME280;45711;50.108;13.712;2023-05-12T14:20:31;97891.38;;;18.32;47.49
59831;BME280;45711;50.108;13.712;2023-05-12T14:25:32;97895.38;;;18.35;46.65
59831;BME280;45711;50.108;13.712;2023-05-12T14:27:58;97891.22;;;18.38;47.16
59831;BME280;45711;50.108;13.712;2023-05-12T14:30:26;97892.88;;;18.51;46.12
59831;BME280;45711;50.108;13.712;2023-05-12T14:32:55;97894.78;;;18.71;45.60
59831;BME280;45711;50.108;13.712;2023-05-12T14:35:24;97893.03;;;18.46;47.43
59831;BME280;45711;50.108;13.712;2023-05-12T14:37:53;97892.00;;;18.17;48.98
59831;BME280;45711;50.108;13.712;2023-05-12T14:40:20;97899.22;;;18.04;48.63
59831;BME280;45711;50.108;13.712;2023-05-12T14:42:47;97911.38;;;17.98;47.18
59831;BME280;45711;50.108;13.712;2023-05-12T14:45:13;97906.84;;;18.11;47.26
59831;BME280;45711;50.108;13.712;2023-05-12T14:47:42;97902.91;;;18.00;48.02
59831;BME280;45711;50.108;13.712;2023-05-12T14:50:08;97914.31;;;17.76;48.51
59831;BME280;45711;50.108;13.712;2023-05-12T14:52:35;97908.81;;;17.55;48.16
59831;BME280;45711;50.108;13.712;2023-05-12T14:55:06;97911.34;;;17.60;45.73
59831;BME280;45711;50.108;13.712;2023-05-12T14:57:36;97909.78;;;17.59;46.36
59831;BME280;45711;50.108;13.712;2023-05-12T15:00:02;97909.13;;;17.53;45.88
59831;BME280;45711;50.108;13.712;2023-05-12T15:02:37;97907.88;;;17.89;47.85
59831;BME280;45711;50.108;13.712;2023-05-12T15:05:16;97906.03;;;17.81;45.90
59831;BME280;45711;50.108;13.712;2023-05-12T15:07:50;97907.03;;;17.68;48.55
59831;BME280;45711;50.108;13.712;2023-05-12T15:10:16;97910.19;;;17.78;47.49
59831;BME280;45711;50.108;13.712;2023-05-12T15:12:46;97915.59;;;17.78;46.49
59831;BME280;45711;50.108;13.712;2023-05-12T15:15:15;97912.75;;;17.75;45.18
59831;BME280;45711;50.108;13.712;2023-05-12T15:17:47;97907.94;;;17.80;47.31
59831;BME280;45711;50.108;13.712;2023-05-12T15:20:12;97908.53;;;17.95;48.56
59831;BME280;45711;50.108;13.712;2023-05-12T15:22:53;97912.75;;;17.75;47.34
59831;BME280;45711;50.108;13.712;2023-05-12T15:25:19;97909.31;;;17.48;48.29
59831;BME280;45711;50.108;13.712;2023-05-12T15:27:45;97918.50;;;17.65;47.54
59831;BME280;45711;50.108;13.712;2023-05-12T15:30:11;97921.88;;;17.53;48.91
59831;BME280;45711;50.108;13.712;2023-05-12T15:32:43;97926.75;;;17.77;48.41
59831;BME280;45711;50.108;13.712;2023-05-12T15:35:09;97929.50;;;17.59;49.37
59831;BME280;45711;50.108;13.712;2023-05-12T15:37:37;97934.84;;;17.86;49.68
59831;BME280;45711;50.108;13.712;2023-05-12T15:40:05;97934.91;;;17.59;48.57
59831;BME280;45711;50.108;13.712;2023-05-12T15:42:31;97932.44;;;17.37;45.97
59831;BME280;45711;50.108;13.712;2023-05-12T15:44:58;97944.22;;;17.24;46.34
59831;BME280;45711;50.108;13.712;2023-05-12T15:47:24;97945.75;;;17.51;49.01
59831;BME280;45711;50.108;13.712;2023-05-12T15:49:50;97943.28;;;17.28;47.00
59831;BME280;45711;50.108;13.712;2023-05-12T15:52:15;97950.13;;;17.17;47.58
59831;BME280;45711;50.108;13.712;2023-05-12T15:54:41;97942.13;;;17.38;47.77
59831;BME280;45711;50.108;13.712;2023-05-12T15:57:09;97934.28;;;17.45;46.17
59831;BME280;45711;50.108;13.712;2023-05-12T15:59:40;97938.75;;;17.50;46.77
59831;BME280;45711;50.108;13.712;2023-05-12T16:02:06;97928.59;;;17.47;49.61
59831;BME280;45711;50.108;13.712;2023-05-12T16:04:34;97930.59;;;17.03;50.44
59831;BME280;45711;50.108;13.712;2023-05-12T16:09:35;97941.88;;;16.79;46.62
59831;BME280;45711;50.108;13.712;2023-05-12T16:12:01;97938.00;;;16.63;46.33
59831;BME280;45711;50.108;13.712;2023-05-12T16:14:27;97947.53;;;16.43;46.66
59831;BME280;45711;50.108;13.712;2023-05-12T16:16:53;97943.75;;;16.70;47.27
59831;BME280;45711;50.108;13.712;2023-05-12T16:19:19;97948.47;;;16.29;46.88
59831;BME280;45711;50.108;13.712;2023-05-12T16:21:44;97960.16;;;16.82;46.13
59831;BME280;45711;50.108;13.712;2023-05-12T16:24:10;97962.81;;;16.56;48.26
59831;BME280;45711;50.108;13.712;2023-05-12T16:26:36;97962.19;;;16.50;45.79
59831;BME280;45711;50.108;13.712;2023-05-12T16:29:02;97964.50;;;16.34;46.21
59831;BME280;45711;50.108;13.712;2023-05-12T16:31:29;97958.53;;;16.55;48.93
59831;BME280;45711;50.108;13.712;2023-05-12T16:33:55;97968.09;;;16.78;46.91
59831;BME280;45711;50.108;13.712;2023-05-12T16:36:21;97957.28;;;16.87;50.46
59831;BME280;45711;50.108;13.712;2023-05-12T16:38:48;97966.16;;;16.62;45.44
59831;BME280;45711;50.108;13.712;2023-05-12T16:41:14;97970.78;;;16.04;47.43
59831;BME280;45711;50.108;13.712;2023-05-12T16:43:39;97980.28;;;16.01;46.96
59831;BME280;45711;50.108;13.712;2023-05-12T16:46:05;97964.25;;;15.96;50.40
59831;BME280;45711;50.108;13.712;2023-05-12T16:48:32;97973.03;;;16.19;46.64
59831;BME280;45711;50.108;13.712;2023-05-12T16:50:59;97962.22;;;16.76;46.82
59831;BME280;45711;50.108;13.712;2023-05-12T16:53:27;97968.41;;;17.12;45.08
59831;BME280;45711;50.108;13.712;2023-05-12T16:55:55;97960.78;;;16.88;47.35
59831;BME280;45711;50.108;13.712;2023-05-12T16:58:21;97964.69;;;16.38;48.17
59831;BME280;45711;50.108;13.712;2023-05-12T17:00:47;97964.72;;;16.55;48.52
59831;BME280;45711;50.108;13.712;2023-05-12T17:03:16;97970.19;;;16.16;48.35
59831;BME280;45711;50.108;13.712;2023-05-12T17:05:46;97971.56;;;16.70;49.52
59831;BME280;45711;50.108;13.712;2023-05-12T17:08:12;97968.50;;;16.37;47.03
59831;BME280;45711;50.108;13.712;2023-05-12T17:10:38;97961.16;;;16.20;47.81
59831;BME280;45711;50.108;13.712;2023-05-12T17:13:03;97960.00;;;16.04;48.43
59831;BME280;45711;50.108;13.712;2023-05-12T17:15:29;97966.19;;;16.04;48.20
59831;BME280;45711;50.108;13.712;2023-05-12T17:17:55;97967.53;;;16.33;48.25
59831;BME280;45711;50.108;13.712;2023-05-12T17:20:24;97971.72;;;16.65;48.14
59831;BME280;45711;50.108;13.712;2023-05-12T17:23:12;97967.69;;;15.88;48.74